sensor_id;sensor_type;location;lat;lon;timestamp;temperature;humidity
6879;DHT22;3478;51.462;7.338;2024-02-16T00:03:33;13.20;99.90
6879;DHT22;3478;51.462;7.338;2024-02-16T00:08:35;13.20;99.90
6879;DHT22;3478;51.462;7.338;2024-02-16T00:13:40;13.20;99.90
6879;DHT22;3478;51.462;7.338;2024-02-16T00:18:42;13.20;99.90
6879;DHT22;3478;51.462;7.338;2024-02-16T00:23:45;13.20;99.90
6879;DHT22;3478;51.462;7.338;2024-02-16T00:28:48;13.20;99.90
6879;DHT22;3478;51.462;7.338;2024-02-16T00:33:50;13.20;99.90
6879;DHT22;3478;51.462;7.338;2024-02-16T00:38:52;13.10;99.90
6879;DHT22;3478;51.462;7.338;2024-02-16T00:43:55;13.20;99.90
6879;DHT22;3478;51.462;7.338;2024-02-16T00:48:58;13.20;99.90
6879;DHT22;3478;51.462;7.338;2024-02-16T00:54:00;13.20;99.90
6879;DHT22;3478;51.462;7.338;2024-02-16T00:59:05;13.20;99.90
6879;DHT22;3478;51.462;7.338;2024-02-16T01:04:09;13.20;99.90
6879;DHT22;3478;51.462;7.338;2024-02-16T01:09:11;13.20;99.90
6879;DHT22;3478;51.462;7.338;2024-02-16T01:14:15;13.20;99.90
6879;DHT22;3478;51.462;7.338;2024-02-16T01:19:17;13.20;99.90
6879;DHT22;3478;51.462;7.338;2024-02-16T01:24:19;13.20;99.90
6879;DHT22;3478;51.462;7.338;2024-02-16T01:29:23;13.20;99.90
6879;DHT22;3478;51.462;7.338;2024-02-16T01:34:25;13.20;99.90
6879;DHT22;3478;51.462;7.338;2024-02-16T01:39:26;13.20;99.90
6879;DHT22;3478;51.462;7.338;2024-02-16T01:44:30;13.10;99.90
6879;DHT22;3478;51.462;7.338;2024-02-16T01:49:32;13.10;99.90
6879;DHT22;3478;51.462;7.338;2024-02-16T01:54:34;13.10;99.90
6879;DHT22;3478;51.462;7.338;2024-02-16T01:59:38;13.10;99.90
6879;DHT22;3478;51.462;7.338;2024-02-16T02:04:40;13.10;99.90
6879;DHT22;3478;51.462;7.338;2024-02-16T02:09:42;13.10;99.90
6879;DHT22;3478;51.462;7.338;2024-02-16T02:14:46;13.10;99.90
6879;DHT22;3478;51.462;7.338;2024-02-16T02:19:49;13.20;99.90
6879;DHT22;3478;51.462;7.338;2024-02-16T02:24:52;13.30;99.90
6879;DHT22;3478;51.462;7.338;2024-02-16T02:29:56;13.30;99.90
6879;DHT22;3478;51.462;7.338;2024-02-16T02:34:59;13.20;99.90
6879;DHT22;3478;51.462;7.338;2024-02-16T02:40:02;13.30;99.90
6879;DHT22;3478;51.462;7.338;2024-02-16T02:45:07;13.20;99.90
6879;DHT22;3478;51.462;7.338;2024-02-16T02:50:09;13.20;99.90
6879;DHT22;3478;51.462;7.338;2024-02-16T02:55:13;13.20;99.90
6879;DHT22;3478;51.462;7.338;2024-02-16T03:00:15;13.30;99.90
6879;DHT22;3478;51.462;7.338;2024-02-16T03:05:17;13.30;99.90
6879;DHT22;3478;51.462;7.338;2024-02-16T03:10:22;13.30;99.90
6879;DHT22;3478;51.462;7.338;2024-02-16T03:15:24;13.30;99.90
6879;DHT22;3478;51.462;7.338;2024-02-16T03:20:26;13.20;99.90
6879;DHT22;3478;51.462;7.338;2024-02-16T03:25:29;13.20;99.90
6879;DHT22;3478;51.462;7.338;2024-02-16T03:30:31;13.10;99.90
6879;DHT22;3478;51.462;7.338;2024-02-16T03:35:34;13.10;99.90
6879;DHT22;3478;51.462;7.338;2024-02-16T03:40:37;13.10;99.90
6879;DHT22;3478;51.462;7.338;2024-02-16T03:45:39;13.10;99.90
6879;DHT22;3478;51.462;7.338;2024-02-16T03:50:41;13.10;99.90
6879;DHT22;3478;51.462;7.338;2024-02-16T03:55:45;13.10;99.90
6879;DHT22;3478;51.462;7.338;2024-02-16T04:00:47;13.10;99.90
6879;DHT22;3478;51.462;7.338;2024-02-16T04:05:49;13.10;99.90
6879;DHT22;3478;51.462;7.338;2024-02-16T04:10:54;13.20;99.90
6879;DHT22;3478;51.462;7.338;2024-02-16T04:15:56;13.10;99.90
6879;DHT22;3478;51.462;7.338;2024-02-16T04:20:58;13.10;99.90
6879;DHT22;3478;51.462;7.338;2024-02-16T04:26:01;13.20;99.90
6879;DHT22;3478;51.462;7.338;2024-02-16T04:31:04;13.20;99.90
6879;DHT22;3478;51.462;7.338;2024-02-16T04:36:07;13.30;99.90
6879;DHT22;3478;51.462;7.338;2024-02-16T04:41:11;13.30;99.90
6879;DHT22;3478;51.462;7.338;2024-02-16T04:46:14;13.30;99.90
6879;DHT22;3478;51.462;7.338;2024-02-16T04:51:16;13.30;99.90
6879;DHT22;3478;51.462;7.338;2024-02-16T04:56:19;13.30;99.90
6879;DHT22;3478;51.462;7.338;2024-02-16T05:01:23;13.30;99.90
6879;DHT22;3478;51.462;7.338;2024-02-16T05:06:25;13.30;99.90
6879;DHT22;3478;51.462;7.338;2024-02-16T05:11:31;13.30;99.90
6879;DHT22;3478;51.462;7.338;2024-02-16T05:16:33;13.20;99.90
6879;DHT22;3478;51.462;7.338;2024-02-16T05:21:35;13.20;99.90
6879;DHT22;3478;51.462;7.338;2024-02-16T05:26:39;13.20;99.90
6879;DHT22;3478;51.462;7.338;2024-02-16T05:31:40;13.20;99.90
6879;DHT22;3478;51.462;7.338;2024-02-16T05:36:42;13.20;99.90
6879;DHT22;3478;51.462;7.338;2024-02-16T05:41:46;13.10;99.90
6879;DHT22;3478;51.462;7.338;2024-02-16T05:46:48;13.00;99.90
6879;DHT22;3478;51.462;7.338;2024-02-16T05:51:50;13.10;99.90
6879;DHT22;3478;51.462;7.338;2024-02-16T05:57:19;13.10;99.90
6879;DHT22;3478;51.462;7.338;2024-02-16T06:02:21;13.00;99.90
6879;DHT22;3478;51.462;7.338;2024-02-16T06:07:26;13.00;99.90
6879;DHT22;3478;51.462;7.338;2024-02-16T06:12:29;13.00;99.90
6879;DHT22;3478;51.462;7.338;2024-02-16T06:17:31;12.90;99.90
6879;DHT22;3478;51.462;7.338;2024-02-16T06:22:33;12.80;99.90
6879;DHT22;3478;51.462;7.338;2024-02-16T06:27:36;12.90;99.90
6879;DHT22;3478;51.462;7.338;2024-02-16T06:32:38;12.80;99.90
6879;DHT22;3478;51.462;7.338;2024-02-16T06:37:41;12.80;99.90
6879;DHT22;3478;51.462;7.338;2024-02-16T06:42:44;12.80;99.90
6879;DHT22;3478;51.462;7.338;2024-02-16T06:47:47;12.80;99.90
6879;DHT22;3478;51.462;7.338;2024-02-16T06:52:48;12.80;99.90
6879;DHT22;3478;51.462;7.338;2024-02-16T06:57:52;12.80;99.90
6879;DHT22;3478;51.462;7.338;2024-02-16T07:02:53;12.70;99.90
6879;DHT22;3478;51.462;7.338;2024-02-16T07:07:55;12.80;99.90
6879;DHT22;3478;51.462;7.338;2024-02-16T07:12:59;12.80;99.90
6879;DHT22;3478;51.462;7.338;2024-02-16T07:18:00;12.80;99.90
6879;DHT22;3478;51.462;7.338;2024-02-16T07:23:04;12.80;99.90
6879;DHT22;3478;51.462;7.338;2024-02-16T07:28:07;12.80;99.90
6879;DHT22;3478;51.462;7.338;2024-02-16T07:33:09;12.90;99.90
6879;DHT22;3478;51.462;7.338;2024-02-16T07:38:11;12.90;99.90
6879;DHT22;3478;51.462;7.338;2024-02-16T07:43:15;13.00;99.90
6879;DHT22;3478;51.462;7.338;2024-02-16T07:48:16;13.00;99.90
6879;DHT22;3478;51.462;7.338;2024-02-16T07:53:18;13.10;99.90
6879;DHT22;3478;51.462;7.338;2024-02-16T07:58:22;13.10;99.90
6879;DHT22;3478;51.462;7.338;2024-02-16T08:03:24;13.10;99.90
6879;DHT22;3478;51.462;7.338;2024-02-16T08:08:25;13.20;99.90
6879;DHT22;3478;51.462;7.338;2024-02-16T08:13:29;13.30;99.90
6879;DHT22;3478;51.462;7.338;2024-02-16T08:18:30;13.40;99.90
6879;DHT22;3478;51.462;7.338;2024-02-16T08:23:32;13.50;99.90
6879;DHT22;3478;51.462;7.338;2024-02-16T08:28:35;13.60;99.90
6879;DHT22;3478;51.462;7.338;2024-02-16T08:33:39;13.70;99.90
6879;DHT22;3478;51.462;7.338;2024-02-16T08:38:42;13.70;99.90
6879;DHT22;3478;51.462;7.338;2024-02-16T08:43:46;13.70;99.90
6879;DHT22;3478;51.462;7.338;2024-02-16T08:48:48;13.70;99.90
6879;DHT22;3478;51.462;7.338;2024-02-16T08:53:50;13.80;99.90
6879;DHT22;3478;51.462;7.338;2024-02-16T08:58:53;13.80;99.90
6879;DHT22;3478;51.462;7.338;2024-02-16T09:03:55;13.80;99.90
6879;DHT22;3478;51.462;7.338;2024-02-16T09:08:57;13.80;99.90
6879;DHT22;3478;51.462;7.338;2024-02-16T09:14:01;13.90;99.90
6879;DHT22;3478;51.462;7.338;2024-02-16T09:19:03;14.00;99.90
6879;DHT22;3478;51.462;7.338;2024-02-16T09:24:05;14.00;99.90
6879;DHT22;3478;51.462;7.338;2024-02-16T09:29:12;14.10;99.90
6879;DHT22;3478;51.462;7.338;2024-02-16T09:34:14;14.10;99.90
6879;DHT22;3478;51.462;7.338;2024-02-16T09:39:16;14.20;99.90
6879;DHT22;3478;51.462;7.338;2024-02-16T09:44:20;14.20;99.90
6879;DHT22;3478;51.462;7.338;2024-02-16T09:49:23;14.20;99.90
6879;DHT22;3478;51.462;7.338;2024-02-16T09:54:25;14.30;99.90
6879;DHT22;3478;51.462;7.338;2024-02-16T09:59:28;14.30;99.90
6879;DHT22;3478;51.462;7.338;2024-02-16T10:04:31;14.40;99.90
6879;DHT22;3478;51.462;7.338;2024-02-16T10:09:33;14.40;99.90
6879;DHT22;3478;51.462;7.338;2024-02-16T10:14:36;14.50;99.90
6879;DHT22;3478;51.462;7.338;2024-02-16T10:19:41;14.60;99.90
6879;DHT22;3478;51.462;7.338;2024-02-16T10:24:43;14.70;99.90
6879;DHT22;3478;51.462;7.338;2024-02-16T10:29:47;14.70;99.90
6879;DHT22;3478;51.462;7.338;2024-02-16T10:34:51;14.60;99.90
6879;DHT22;3478;51.462;7.338;2024-02-16T10:39:55;14.60;99.90
6879;DHT22;3478;51.462;7.338;2024-02-16T10:45:00;14.70;99.90
6879;DHT22;3478;51.462;7.338;2024-02-16T10:50:03;14.70;99.90
6879;DHT22;3478;51.462;7.338;2024-02-16T10:55:06;14.70;99.90
6879;DHT22;3478;51.462;7.338;2024-02-16T11:00:11;14.90;99.90
6879;DHT22;3478;51.462;7.338;2024-02-16T11:05:13;15.00;99.90
6879;DHT22;3478;51.462;7.338;2024-02-16T11:10:15;15.10;99.90
6879;DHT22;3478;51.462;7.338;2024-02-16T11:15:27;15.30;99.90
6879;DHT22;3478;51.462;7.338;2024-02-16T11:20:35;15.40;99.90
6879;DHT22;3478;51.462;7.338;2024-02-16T11:25:38;15.30;99.90
6879;DHT22;3478;51.462;7.338;2024-02-16T11:30:41;15.30;99.90
6879;DHT22;3478;51.462;7.338;2024-02-16T11:35:52;15.20;99.90
6879;DHT22;3478;51.462;7.338;2024-02-16T11:40:56;15.10;99.90
6879;DHT22;3478;51.462;7.338;2024-02-16T11:45:59;15.10;99.90
6879;DHT22;3478;51.462;7.338;2024-02-16T11:51:02;15.10;99.90
6879;DHT22;3478;51.462;7.338;2024-02-16T11:56:05;15.00;99.90
6879;DHT22;3478;51.462;7.338;2024-02-16T12:01:12;14.90;99.90
6879;DHT22;3478;51.462;7.338;2024-02-16T12:06:20;14.90;99.90
6879;DHT22;3478;51.462;7.338;2024-02-16T12:11:23;14.80;99.90
6879;DHT22;3478;51.462;7.338;2024-02-16T12:16:27;14.80;99.90
6879;DHT22;3478;51.462;7.338;2024-02-16T12:21:30;14.70;99.90
6879;DHT22;3478;51.462;7.338;2024-02-16T12:26:32;14.70;99.90
6879;DHT22;3478;51.462;7.338;2024-02-16T12:31:35;14.70;99.90
6879;DHT22;3478;51.462;7.338;2024-02-16T12:36:39;14.70;99.90
6879;DHT22;3478;51.462;7.338;2024-02-16T12:41:41;14.60;99.90
6879;DHT22;3478;51.462;7.338;2024-02-16T12:46:45;14.60;99.90
6879;DHT22;3478;51.462;7.338;2024-02-16T12:51:49;14.60;99.90
6879;DHT22;3478;51.462;7.338;2024-02-16T12:56:51;14.60;99.90
6879;DHT22;3478;51.462;7.338;2024-02-16T13:01:55;14.50;99.90
6879;DHT22;3478;51.462;7.338;2024-02-16T13:06:57;14.40;99.90
6879;DHT22;3478;51.462;7.338;2024-02-16T13:11:59;14.30;99.90
6879;DHT22;3478;51.462;7.338;2024-02-16T13:17:04;14.30;99.90
6879;DHT22;3478;51.462;7.338;2024-02-16T13:22:06;14.20;99.90
6879;DHT22;3478;51.462;7.338;2024-02-16T13:27:08;14.10;99.90
6879;DHT22;3478;51.462;7.338;2024-02-16T13:32:11;14.00;99.90
6879;DHT22;3478;51.462;7.338;2024-02-16T13:37:13;13.80;99.90
6879;DHT22;3478;51.462;7.338;2024-02-16T13:42:15;13.60;99.90
6879;DHT22;3478;51.462;7.338;2024-02-16T13:47:22;13.60;99.90
6879;DHT22;3478;51.462;7.338;2024-02-16T13:52:24;13.50;99.90
6879;DHT22;3478;51.462;7.338;2024-02-16T13:57:26;13.40;99.90
6879;DHT22;3478;51.462;7.338;2024-02-16T14:02:30;13.30;99.90
6879;DHT22;3478;51.462;7.338;2024-02-16T14:07:32;13.30;99.90
6879;DHT22;3478;51.462;7.338;2024-02-16T14:12:34;13.20;99.90
6879;DHT22;3478;51.462;7.338;2024-02-16T14:17:38;13.10;99.90
6879;DHT22;3478;51.462;7.338;2024-02-16T14:22:40;12.90;99.90
6879;DHT22;3478;51.462;7.338;2024-02-16T14:27:42;12.90;99.90
6879;DHT22;3478;51.462;7.338;2024-02-16T14:32:45;12.90;99.90
6879;DHT22;3478;51.462;7.338;2024-02-16T14:37:48;12.90;99.90
6879;DHT22;3478;51.462;7.338;2024-02-16T14:42:50;12.90;99.90
6879;DHT22;3478;51.462;7.338;2024-02-16T14:47:53;12.80;99.90
6879;DHT22;3478;51.462;7.338;2024-02-16T14:52:56;12.70;99.90
6879;DHT22;3478;51.462;7.338;2024-02-16T14:57:58;12.80;99.90
6879;DHT22;3478;51.462;7.338;2024-02-16T15:03:01;12.80;99.90
6879;DHT22;3478;51.462;7.338;2024-02-16T15:08:04;12.80;99.90
6879;DHT22;3478;51.462;7.338;2024-02-16T15:13:06;12.80;99.90
6879;DHT22;3478;51.462;7.338;2024-02-16T15:18:09;12.80;99.90
6879;DHT22;3478;51.462;7.338;2024-02-16T15:23:11;12.70;99.90
6879;DHT22;3478;51.462;7.338;2024-02-16T15:28:13;12.80;99.90
6879;DHT22;3478;51.462;7.338;2024-02-16T15:33:16;12.70;99.90
6879;DHT22;3478;51.462;7.338;2024-02-16T15:38:19;12.60;99.90
6879;DHT22;3478;51.462;7.338;2024-02-16T15:43:21;12.50;99.90
6879;DHT22;3478;51.462;7.338;2024-02-16T15:48:24;12.40;99.90
6879;DHT22;3478;51.462;7.338;2024-02-16T15:53:27;12.40;99.90
6879;DHT22;3478;51.462;7.338;2024-02-16T15:58:31;12.30;99.90
6879;DHT22;3478;51.462;7.338;2024-02-16T16:03:35;12.30;99.90
6879;DHT22;3478;51.462;7.338;2024-02-16T16:08:37;12.30;99.90
6879;DHT22;3478;51.462;7.338;2024-02-16T16:13:41;12.30;99.90
6879;DHT22;3478;51.462;7.338;2024-02-16T16:18:44;12.40;99.90
6879;DHT22;3478;51.462;7.338;2024-02-16T16:23:46;12.30;99.90
6879;DHT22;3478;51.462;7.338;2024-02-16T16:28:49;12.30;99.90
6879;DHT22;3478;51.462;7.338;2024-02-16T16:33:52;12.30;99.90
6879;DHT22;3478;51.462;7.338;2024-02-16T16:38:54;12.20;99.90
6879;DHT22;3478;51.462;7.338;2024-02-16T16:43:56;12.20;99.90
6879;DHT22;3478;51.462;7.338;2024-02-16T16:48:59;12.20;99.90
6879;DHT22;3478;51.462;7.338;2024-02-16T16:54:01;12.20;99.90
6879;DHT22;3478;51.462;7.338;2024-02-16T16:59:04;12.10;99.90
6879;DHT22;3478;51.462;7.338;2024-02-16T17:04:08;12.10;99.90
6879;DHT22;3478;51.462;7.338;2024-02-16T17:09:10;12.20;99.90
6879;DHT22;3478;51.462;7.338;2024-02-16T17:14:11;12.20;99.90
6879;DHT22;3478;51.462;7.338;2024-02-16T17:19:15;12.20;99.90
6879;DHT22;3478;51.462;7.338;2024-02-16T17:24:17;12.20;99.90
6879;DHT22;3478;51.462;7.338;2024-02-16T17:29:19;12.10;99.90
6879;DHT22;3478;51.462;7.338;2024-02-16T17:34:22;12.10;99.90
6879;DHT22;3478;51.462;7.338;2024-02-16T17:39:24;12.00;99.90
6879;DHT22;3478;51.462;7.338;2024-02-16T17:44:27;11.90;99.90
6879;DHT22;3478;51.462;7.338;2024-02-16T17:49:30;11.80;99.90
6879;DHT22;3478;51.462;7.338;2024-02-16T17:54:32;11.70;99.90
6879;DHT22;3478;51.462;7.338;2024-02-16T17:59:34;11.50;99.90
6879;DHT22;3478;51.462;7.338;2024-02-16T18:04:38;11.50;99.90
6879;DHT22;3478;51.462;7.338;2024-02-16T18:09:40;11.50;99.90
6879;DHT22;3478;51.462;7.338;2024-02-16T18:14:42;11.40;99.90
6879;DHT22;3478;51.462;7.338;2024-02-16T18:19:45;11.40;99.90
6879;DHT22;3478;51.462;7.338;2024-02-16T18:24:47;11.40;99.90
6879;DHT22;3478;51.462;7.338;2024-02-16T18:29:49;11.30;99.90
6879;DHT22;3478;51.462;7.338;2024-02-16T18:34:52;11.30;99.90
6879;DHT22;3478;51.462;7.338;2024-02-16T18:39:54;11.30;99.90
6879;DHT22;3478;51.462;7.338;2024-02-16T18:44:57;11.30;99.90
6879;DHT22;3478;51.462;7.338;2024-02-16T18:50:00;11.30;99.90
6879;DHT22;3478;51.462;7.338;2024-02-16T18:55:03;11.20;99.90
6879;DHT22;3478;51.462;7.338;2024-02-16T19:00:06;11.30;99.90
6879;DHT22;3478;51.462;7.338;2024-02-16T19:05:11;11.30;99.90
6879;DHT22;3478;51.462;7.338;2024-02-16T19:10:13;11.30;99.90
6879;DHT22;3478;51.462;7.338;2024-02-16T19:15:15;11.40;99.90
6879;DHT22;3478;51.462;7.338;2024-02-16T19:20:19;11.40;99.90
6879;DHT22;3478;51.462;7.338;2024-02-16T19:25:21;11.40;99.90
6879;DHT22;3478;51.462;7.338;2024-02-16T19:30:23;11.40;99.90
6879;DHT22;3478;51.462;7.338;2024-02-16T19:35:26;11.30;99.90
6879;DHT22;3478;51.462;7.338;2024-02-16T19:40:28;11.30;99.90
6879;DHT22;3478;51.462;7.338;2024-02-16T19:45:30;11.30;99.90
6879;DHT22;3478;51.462;7.338;2024-02-16T19:50:33;11.30;99.90
6879;DHT22;3478;51.462;7.338;2024-02-16T19:55:35;11.30;99.90
6879;DHT22;3478;51.462;7.338;2024-02-16T20:00:37;11.40;99.90
6879;DHT22;3478;51.462;7.338;2024-02-16T20:05:41;11.40;99.90
6879;DHT22;3478;51.462;7.338;2024-02-16T20:10:43;11.40;99.90
6879;DHT22;3478;51.462;7.338;2024-02-16T20:15:45;11.30;99.90
6879;DHT22;3478;51.462;7.338;2024-02-16T20:20:48;11.30;99.90
6879;DHT22;3478;51.462;7.338;2024-02-16T20:25:50;11.30;99.90
6879;DHT22;3478;51.462;7.338;2024-02-16T20:30:52;11.40;99.90
6879;DHT22;3478;51.462;7.338;2024-02-16T20:35:56;11.40;99.90
6879;DHT22;3478;51.462;7.338;2024-02-16T20:40:58;11.30;99.90
6879;DHT22;3478;51.462;7.338;2024-02-16T20:46:00;11.20;99.90
6879;DHT22;3478;51.462;7.338;2024-02-16T20:51:03;11.20;99.90
6879;DHT22;3478;51.462;7.338;2024-02-16T20:56:06;11.30;99.90
6879;DHT22;3478;51.462;7.338;2024-02-16T21:01:07;11.30;99.90
6879;DHT22;3478;51.462;7.338;2024-02-16T21:06:11;11.20;99.90
6879;DHT22;3478;51.462;7.338;2024-02-16T21:11:15;11.20;99.90
6879;DHT22;3478;51.462;7.338;2024-02-16T21:16:17;11.20;99.90
6879;DHT22;3478;51.462;7.338;2024-02-16T21:21:20;11.20;99.90
6879;DHT22;3478;51.462;7.338;2024-02-16T21:26:23;11.30;99.90
6879;DHT22;3478;51.462;7.338;2024-02-16T21:31:25;11.30;99.90
6879;DHT22;3478;51.462;7.338;2024-02-16T21:36:29;11.30;99.90
6879;DHT22;3478;51.462;7.338;2024-02-16T21:41:31;11.30;99.90
6879;DHT22;3478;51.462;7.338;2024-02-16T21:46:33;11.30;99.90
6879;DHT22;3478;51.462;7.338;2024-02-16T21:51:37;11.30;99.90
6879;DHT22;3478;51.462;7.338;2024-02-16T21:56:39;11.30;99.90
6879;DHT22;3478;51.462;7.338;2024-02-16T22:01:41;11.20;99.90
6879;DHT22;3478;51.462;7.338;2024-02-16T22:06:45;11.10;99.90
6879;DHT22;3478;51.462;7.338;2024-02-16T22:11:48;11.20;99.90
6879;DHT22;3478;51.462;7.338;2024-02-16T22:16:50;11.20;99.90
6879;DHT22;3478;51.462;7.338;2024-02-16T22:21:53;11.20;99.90
6879;DHT22;3478;51.462;7.338;2024-02-16T22:26:55;11.10;99.90
6879;DHT22;3478;51.462;7.338;2024-02-16T22:31:57;11.10;99.90
6879;DHT22;3478;51.462;7.338;2024-02-16T22:37:02;11.10;99.90
6879;DHT22;3478;51.462;7.338;2024-02-16T22:42:04;11.10;99.90
6879;DHT22;3478;51.462;7.338;2024-02-16T22:47:06;11.10;99.90
6879;DHT22;3478;51.462;7.338;2024-02-16T22:52:10;11.10;99.90
6879;DHT22;3478;51.462;7.338;2024-02-16T22:57:12;11.10;99.90
6879;DHT22;3478;51.462;7.338;2024-02-16T23:02:14;11.10;99.90
6879;DHT22;3478;51.462;7.338;2024-02-16T23:07:17;11.00;99.90
6879;DHT22;3478;51.462;7.338;2024-02-16T23:12:20;10.90;99.90
6879;DHT22;3478;51.462;7.338;2024-02-16T23:17:24;10.90;99.90
6879;DHT22;3478;51.462;7.338;2024-02-16T23:22:27;10.90;99.90
6879;DHT22;3478;51.462;7.338;2024-02-16T23:27:29;10.90;99.90
6879;DHT22;3478;51.462;7.338;2024-02-16T23:32:31;10.90;99.90
6879;DHT22;3478;51.462;7.338;2024-02-16T23:37:34;10.90;99.90
6879;DHT22;3478;51.462;7.338;2024-02-16T23:42:36;10.90;99.90
6879;DHT22;3478;51.462;7.338;2024-02-16T23:47:39;10.90;99.90
6879;DHT22;3478;51.462;7.338;2024-02-16T23:52:44;10.80;99.90
6879;DHT22;3478;51.462;7.338;2024-02-16T23:57:46;10.80;99.90
